createdAt,value
2023-03-30T00:00:18.413Z,31.95
2023-03-30T00:02:49.448Z,33.20
2023-03-30T00:05:19.617Z,28.15
2023-03-30T00:07:48.704Z,30.05
2023-03-30T00:10:20.045Z,30.27
2023-03-30T00:12:51.827Z,33.10
2023-03-30T00:15:23.686Z,31.45
2023-03-30T00:17:55.174Z,30.92
2023-03-30T00:20:25.034Z,30.13
2023-03-30T00:22:53.391Z,33.67
2023-03-30T00:25:23.243Z,33.55
2023-03-30T00:27:51.684Z,35.55
2023-03-30T00:30:20.395Z,32.80
2023-03-30T00:32:48.856Z,32.65
2023-03-30T00:35:17.341Z,32.13
2023-03-30T00:37:49.447Z,35.45
2023-03-30T00:40:22.072Z,31.80
2023-03-30T00:42:50.943Z,31.38
2023-03-30T00:45:26.331Z,30.00
2023-03-30T00:48:04.386Z,31.05
2023-03-30T00:50:37.510Z,30.60
2023-03-30T00:53:16.229Z,32.40
2023-03-30T00:55:48.251Z,31.63
2023-03-30T00:58:18.519Z,30.02
2023-03-30T01:00:47.592Z,30.63
2023-03-30T01:03:22.872Z,30.13
2023-03-30T01:05:53.777Z,29.17
2023-03-30T01:08:27.124Z,30.40
2023-03-30T01:10:56.321Z,27.20
2023-03-30T01:13:24.951Z,30.13
2023-03-30T01:16:07.814Z,29.50
2023-03-30T01:18:54.718Z,30.45
2023-03-30T01:22:00.232Z,27.15
2023-03-30T01:25:15.618Z,27.67
2023-03-30T01:28:20.674Z,27.48
2023-03-30T01:31:30.321Z,26.20
2023-03-30T01:34:37.058Z,27.83
2023-03-30T01:38:01.915Z,27.17
2023-03-30T01:40:40.057Z,27.13
2023-03-30T01:43:19.223Z,28.80
2023-03-30T01:45:56.596Z,28.98
2023-03-30T01:48:34.400Z,28.13
2023-03-30T01:51:09.286Z,28.40
2023-03-30T01:53:46.986Z,30.83
2023-03-30T01:56:22.072Z,28.40
2023-03-30T01:58:56.080Z,31.10
2023-03-30T02:01:27.706Z,27.90
2023-03-30T02:04:00.081Z,27.30
2023-03-30T02:06:38.678Z,25.30
2023-03-30T02:09:11.798Z,28.65
2023-03-30T02:11:47.184Z,26.75
2023-03-30T02:14:19.190Z,28.10
2023-03-30T02:16:50.258Z,30.13
2023-03-30T02:19:20.593Z,29.30
2023-03-30T02:21:50.462Z,30.33
2023-03-30T02:24:24.914Z,32.15
2023-03-30T02:26:56.371Z,32.33
2023-03-30T02:29:24.644Z,30.90
2023-03-30T02:31:58.607Z,29.98
2023-03-30T02:34:52.903Z,36.25
2023-03-30T02:37:54.637Z,32.88
2023-03-30T02:40:41.930Z,30.90
2023-03-30T02:43:34.967Z,33.15
2023-03-30T02:46:21.932Z,32.25
2023-03-30T02:49:08.651Z,32.38
2023-03-30T02:51:48.031Z,33.00
2023-03-30T02:54:56.843Z,31.33
2023-03-30T02:57:57.566Z,30.92
2023-03-30T03:00:53.113Z,36.80
2023-03-30T03:03:39.024Z,32.80
2023-03-30T03:06:09.361Z,33.33
2023-03-30T03:08:47.685Z,33.80
2023-03-30T03:11:21.057Z,35.45
2023-03-30T03:13:49.776Z,35.92
2023-03-30T03:16:20.451Z,35.33
2023-03-30T03:19:06.310Z,36.65
2023-03-30T03:21:34.597Z,35.13
2023-03-30T03:24:03.124Z,37.83
2023-03-30T03:26:51.395Z,37.33
2023-03-30T03:29:20.580Z,33.10
2023-03-30T03:31:50.309Z,33.47
2023-03-30T03:34:21.223Z,36.03
2023-03-30T03:37:07.551Z,33.70
2023-03-30T03:39:37.133Z,33.97
2023-03-30T03:42:09.742Z,32.25
2023-03-30T03:44:46.196Z,35.25
2023-03-30T03:47:16.842Z,33.80
2023-03-30T03:49:46.338Z,30.98
2023-03-30T03:52:14.664Z,36.15
2023-03-30T03:54:42.948Z,37.30
2023-03-30T03:57:11.334Z,38.70
2023-03-30T03:59:39.641Z,38.05
2023-03-30T04:02:07.981Z,37.65
2023-03-30T04:04:37.878Z,35.72
2023-03-30T04:07:06.651Z,34.58
2023-03-30T04:09:34.912Z,38.25
2023-03-30T04:12:15.683Z,35.40
2023-03-30T04:15:16.351Z,34.45
2023-03-30T04:18:05.432Z,33.50
2023-03-30T04:20:53.806Z,32.95
2023-03-30T04:23:49.054Z,32.47
2023-03-30T04:26:19.829Z,32.08
2023-03-30T04:28:48.072Z,34.28
2023-03-30T04:31:39.409Z,32.25
2023-03-30T04:34:31.038Z,32.15
2023-03-30T04:37:07.458Z,32.83
2023-03-30T04:39:51.375Z,30.70
2023-03-30T04:42:49.824Z,28.63
2023-03-30T04:45:25.215Z,32.55
2023-03-30T04:48:02.466Z,31.55
2023-03-30T04:50:51.438Z,30.83
2023-03-30T04:53:24.034Z,29.17
2023-03-30T04:55:52.796Z,31.42
2023-03-30T04:58:53.397Z,33.47
2023-03-30T05:01:27.479Z,29.75
2023-03-30T05:04:24.242Z,28.90
2023-03-30T05:07:15.703Z,29.52
2023-03-30T05:09:56.172Z,27.55
2023-03-30T05:12:42.943Z,30.08
2023-03-30T05:15:37.236Z,27.73
2023-03-30T05:18:26.050Z,28.85
2023-03-30T05:21:12.945Z,28.35
2023-03-30T05:23:59.953Z,30.27
2023-03-30T05:27:07.896Z,27.08
2023-03-30T05:29:50.011Z,32.25
2023-03-30T05:32:38.598Z,27.98
2023-03-30T05:35:23.335Z,27.25
2023-03-30T05:38:15.189Z,27.20
2023-03-30T05:41:05.089Z,24.55
2023-03-30T05:43:49.042Z,22.88
2023-03-30T05:46:36.273Z,23.38
2023-03-30T05:49:27.620Z,22.48
2023-03-30T05:52:09.504Z,22.52
2023-03-30T05:55:00.214Z,24.33
2023-03-30T05:57:38.560Z,19.67
2023-03-30T06:00:36.552Z,17.75
2023-03-30T06:03:13.704Z,20.67
2023-03-30T06:05:43.613Z,13.98
2023-03-30T06:08:13.553Z,17.67
2023-03-30T06:10:42.728Z,22.65
2023-03-30T06:13:13.373Z,16.55
2023-03-30T06:15:49.591Z,19.95
2023-03-30T06:18:22.558Z,17.90
2023-03-30T06:20:57.390Z,15.95
2023-03-30T06:23:26.260Z,20.80
2023-03-30T06:25:57.652Z,19.52
2023-03-30T06:28:30.973Z,22.13
2023-03-30T06:31:03.128Z,15.88
2023-03-30T06:33:32.472Z,18.33
2023-03-30T06:36:03.121Z,18.98
2023-03-30T06:38:31.931Z,20.88
2023-03-30T06:41:05.295Z,21.42
2023-03-30T06:43:34.189Z,17.48
2023-03-30T06:46:15.703Z,15.75
2023-03-30T06:48:49.205Z,18.42
2023-03-30T06:51:36.244Z,18.20
2023-03-30T06:54:06.317Z,17.10
2023-03-30T06:56:34.898Z,18.42
2023-03-30T06:59:10.266Z,16.23
2023-03-30T07:02:01.071Z,16.60
2023-03-30T07:05:02.108Z,18.73
2023-03-30T07:07:41.874Z,15.15
2023-03-30T07:10:12.090Z,14.90
2023-03-30T07:12:42.625Z,15.10
2023-03-30T07:15:12.427Z,15.05
2023-03-30T07:17:43.039Z,17.40
2023-03-30T07:20:14.854Z,13.73
2023-03-30T07:23:11.356Z,15.10
2023-03-30T07:25:40.258Z,15.68
2023-03-30T07:28:15.044Z,12.90
2023-03-30T07:30:43.447Z,12.45
2023-03-30T07:33:14.787Z,12.80
2023-03-30T07:35:45.945Z,14.50
2023-03-30T07:38:16.609Z,15.85
2023-03-30T07:40:51.514Z,13.88
2023-03-30T07:43:21.733Z,9.90
2023-03-30T07:45:50.117Z,14.30
2023-03-30T07:48:32.458Z,10.98
2023-03-30T07:51:02.980Z,11.80
2023-03-30T07:53:33.171Z,13.50
2023-03-30T07:56:03.811Z,13.70
2023-03-30T07:58:41.693Z,12.85
2023-03-30T08:01:10.981Z,13.32
2023-03-30T08:03:40.698Z,12.05
2023-03-30T08:06:10.936Z,13.02
2023-03-30T08:08:41.791Z,9.75
2023-03-30T08:11:12.605Z,10.98
2023-03-30T08:13:43.004Z,10.73
2023-03-30T08:16:11.646Z,13.52
2023-03-30T08:18:42.369Z,13.70
2023-03-30T08:21:12.190Z,12.23
2023-03-30T08:23:40.449Z,11.43
2023-03-30T08:26:08.748Z,11.60
2023-03-30T08:28:38.061Z,14.15
2023-03-30T08:31:08.295Z,12.23
2023-03-30T08:33:36.744Z,11.05
2023-03-30T08:36:06.967Z,15.30
2023-03-30T08:38:35.289Z,11.27
2023-03-30T08:41:22.133Z,11.50
2023-03-30T08:43:55.562Z,9.30
2023-03-30T08:46:24.174Z,10.88
2023-03-30T08:48:57.773Z,8.00
2023-03-30T08:51:31.097Z,12.13
2023-03-30T08:54:02.685Z,11.57
2023-03-30T08:56:35.254Z,11.15
2023-03-30T08:59:22.387Z,10.00
2023-03-30T09:01:57.196Z,10.25
2023-03-30T09:04:40.805Z,11.48
2023-03-30T09:07:18.854Z,8.77
2023-03-30T09:09:50.884Z,8.48
2023-03-30T09:12:34.088Z,11.40
2023-03-30T09:15:07.462Z,12.45
2023-03-30T09:17:42.730Z,17.23
2023-03-30T09:20:20.522Z,10.63
2023-03-30T09:22:51.234Z,10.65
2023-03-30T09:25:25.904Z,11.15
2023-03-30T09:28:06.813Z,7.55
2023-03-30T09:30:41.610Z,11.95
2023-03-30T09:33:33.683Z,9.10
2023-03-30T09:36:14.950Z,10.95
2023-03-30T09:38:45.909Z,11.25
2023-03-30T09:41:36.468Z,7.13
2023-03-30T09:44:04.777Z,9.07
2023-03-30T09:46:40.410Z,13.32
2023-03-30T09:49:17.472Z,10.02
2023-03-30T09:52:01.350Z,7.93
2023-03-30T09:54:38.534Z,9.65
2023-03-30T09:57:08.103Z,11.95
2023-03-30T09:59:38.531Z,11.05
2023-03-30T10:02:21.815Z,7.93
2023-03-30T10:05:03.184Z,8.52
2023-03-30T10:07:36.608Z,7.38
2023-03-30T10:10:18.087Z,9.85
2023-03-30T10:12:46.746Z,10.40
2023-03-30T10:15:21.489Z,7.43
2023-03-30T10:17:56.155Z,8.52
2023-03-30T10:20:29.575Z,5.88
2023-03-30T10:23:03.040Z,6.68
2023-03-30T10:25:34.872Z,10.27
2023-03-30T10:28:07.042Z,9.00
2023-03-30T10:30:35.848Z,8.35
2023-03-30T10:33:04.811Z,7.25
2023-03-30T10:35:38.384Z,7.00
2023-03-30T10:38:10.355Z,10.15
2023-03-30T10:40:42.468Z,6.70
2023-03-30T10:43:18.656Z,7.15
2023-03-30T10:45:51.235Z,7.80
2023-03-30T10:48:37.579Z,9.30
2023-03-30T10:51:18.292Z,5.90
2023-03-30T10:53:59.701Z,8.65
2023-03-30T10:56:40.669Z,6.45
2023-03-30T10:59:35.161Z,4.93
2023-03-30T11:02:34.462Z,6.55
2023-03-30T11:05:09.359Z,7.07
2023-03-30T11:07:44.896Z,9.23
2023-03-30T11:10:21.823Z,5.40
2023-03-30T11:12:59.859Z,8.38
2023-03-30T11:15:34.270Z,6.65
2023-03-30T11:18:12.816Z,7.00
2023-03-30T11:20:48.549Z,8.85
2023-03-30T11:23:27.756Z,6.70
2023-03-30T11:26:03.483Z,5.47
2023-03-30T11:28:58.459Z,7.47
2023-03-30T11:31:45.941Z,7.35
2023-03-30T11:34:27.896Z,8.35
2023-03-30T11:37:07.162Z,6.15
2023-03-30T11:39:44.858Z,8.88
2023-03-30T11:42:22.382Z,6.97
2023-03-30T11:44:52.687Z,5.05
2023-03-30T11:47:48.529Z,5.68
2023-03-30T11:50:38.776Z,5.45
2023-03-30T11:53:24.314Z,6.53
2023-03-30T11:56:11.440Z,5.75
2023-03-30T11:58:47.084Z,7.13
2023-03-30T12:01:41.964Z,5.95
2023-03-30T12:04:13.994Z,8.15
2023-03-30T12:06:48.472Z,10.43
2023-03-30T12:09:28.740Z,10.82
2023-03-30T12:12:06.458Z,10.23
2023-03-30T12:15:01.750Z,10.52
2023-03-30T12:17:46.629Z,11.52
2023-03-30T12:20:42.712Z,6.85
2023-03-30T12:23:27.146Z,8.57
2023-03-30T12:26:25.151Z,11.10
2023-03-30T12:29:40.503Z,10.32
2023-03-30T12:32:08.527Z,16.60
2023-03-30T12:34:44.943Z,10.40
2023-03-30T12:37:18.228Z,13.00
2023-03-30T12:39:54.293Z,12.65
2023-03-30T12:42:34.327Z,10.23
2023-03-30T12:45:30.287Z,14.13
2023-03-30T12:48:16.316Z,13.38
2023-03-30T12:51:03.282Z,11.98
2023-03-30T12:54:08.205Z,10.38
2023-03-30T12:56:45.233Z,11.40
2023-03-30T12:59:50.373Z,14.15
2023-03-30T13:03:12.736Z,13.02
2023-03-30T13:05:44.920Z,14.52
2023-03-30T13:08:24.658Z,9.20
2023-03-30T13:11:05.961Z,11.45
2023-03-30T13:13:58.670Z,10.77
2023-03-30T13:17:11.059Z,6.88
2023-03-30T13:20:03.911Z,10.73
2023-03-30T13:22:33.783Z,12.00
2023-03-30T13:25:29.569Z,15.50
2023-03-30T13:28:01.159Z,11.75
2023-03-30T13:30:31.190Z,9.38
2023-03-30T13:33:12.608Z,11.85
2023-03-30T13:36:06.191Z,9.63
2023-03-30T13:38:57.519Z,11.15
2023-03-30T13:41:45.751Z,8.60
2023-03-30T13:44:39.474Z,9.20
2023-03-30T13:47:30.515Z,10.88
2023-03-30T13:50:03.375Z,8.65
2023-03-30T13:52:38.378Z,10.00
2023-03-30T13:55:18.315Z,7.10
2023-03-30T13:57:48.005Z,5.15
2023-03-30T14:00:39.669Z,7.47
2023-03-30T14:03:29.162Z,6.75
2023-03-30T14:06:03.787Z,5.18
2023-03-30T14:08:36.950Z,7.90
2023-03-30T14:11:17.908Z,8.10
2023-03-30T14:13:52.104Z,7.35
2023-03-30T14:16:23.904Z,9.63
2023-03-30T14:18:53.479Z,6.95
2023-03-30T14:21:24.282Z,6.38
2023-03-30T14:23:55.449Z,6.75
2023-03-30T14:26:27.493Z,7.35
2023-03-30T14:29:00.345Z,8.48
2023-03-30T14:31:28.651Z,10.43
2023-03-30T14:33:57.018Z,9.27
2023-03-30T14:36:25.873Z,10.40
2023-03-30T14:38:57.480Z,8.18
2023-03-30T14:41:28.898Z,7.45
2023-03-30T14:44:02.075Z,8.95
2023-03-30T14:46:42.359Z,8.00
2023-03-30T14:49:19.738Z,11.98
2023-03-30T14:51:50.797Z,6.97
2023-03-30T14:54:22.700Z,10.73
2023-03-30T14:56:58.952Z,12.77
2023-03-30T14:59:31.630Z,9.90
2023-03-30T15:02:01.455Z,12.90
2023-03-30T15:04:36.381Z,8.20
2023-03-30T15:07:05.443Z,9.10
2023-03-30T15:09:40.039Z,7.45
2023-03-30T15:12:09.315Z,8.63
2023-03-30T15:14:41.228Z,12.98
2023-03-30T15:17:15.679Z,9.68
2023-03-30T15:19:44.311Z,11.32
2023-03-30T15:22:27.342Z,9.43
2023-03-30T15:25:01.441Z,8.32
2023-03-30T15:27:31.173Z,13.73
2023-03-30T15:30:02.189Z,9.02
2023-03-30T15:32:36.210Z,11.80
2023-03-30T15:35:16.791Z,6.65
2023-03-30T15:37:55.765Z,7.03
2023-03-30T15:40:35.095Z,4.20
2023-03-30T15:43:19.464Z,8.65
2023-03-30T15:45:53.846Z,6.90
2023-03-30T15:48:26.860Z,9.23
2023-03-30T15:51:03.596Z,7.45
2023-03-30T15:53:41.024Z,10.00
2023-03-30T15:56:23.524Z,6.57
2023-03-30T15:58:52.717Z,10.60
2023-03-30T16:01:23.266Z,8.57
2023-03-30T16:03:57.137Z,18.30
2023-03-30T16:06:25.662Z,16.13
2023-03-30T16:08:53.887Z,10.60
2023-03-30T16:11:23.673Z,11.68
2023-03-30T16:13:54.937Z,15.43
2023-03-30T16:16:24.724Z,15.20
2023-03-30T16:18:53.257Z,12.00
2023-03-30T16:21:24.476Z,11.38
2023-03-30T16:23:52.874Z,12.52
2023-03-30T16:26:21.661Z,16.70
2023-03-30T16:28:53.564Z,15.30
2023-03-30T16:31:25.039Z,13.98
2023-03-30T16:33:53.679Z,17.23
2023-03-30T16:36:25.055Z,14.40
2023-03-30T16:38:53.248Z,19.02
2023-03-30T16:41:23.880Z,16.42
2023-03-30T16:43:52.143Z,19.05
2023-03-30T16:46:22.187Z,13.88
2023-03-30T16:48:52.045Z,14.65
2023-03-30T16:51:20.525Z,16.15
2023-03-30T16:53:48.771Z,16.73
2023-03-30T16:56:19.541Z,12.57
2023-03-30T16:58:48.041Z,18.98
2023-03-30T17:01:18.378Z,20.08
2023-03-30T17:03:47.080Z,15.82
2023-03-30T17:06:17.108Z,11.85
2023-03-30T17:08:45.937Z,13.57
2023-03-30T17:11:14.602Z,14.13
2023-03-30T17:13:43.838Z,16.65
2023-03-30T17:16:15.286Z,14.30
2023-03-30T17:18:43.693Z,14.07
2023-03-30T17:21:16.311Z,16.02
2023-03-30T17:23:47.803Z,17.75
2023-03-30T17:26:16.971Z,12.55
2023-03-30T17:28:46.641Z,12.25
2023-03-30T17:31:18.500Z,12.07
2023-03-30T17:33:47.740Z,17.85
2023-03-30T17:36:19.510Z,16.38
2023-03-30T17:38:50.511Z,17.98
2023-03-30T17:41:20.656Z,17.00
2023-03-30T17:43:49.647Z,15.13
2023-03-30T17:46:20.702Z,18.70
2023-03-30T17:48:51.069Z,22.20
2023-03-30T17:51:19.370Z,16.33
2023-03-30T17:53:49.136Z,13.88
2023-03-30T17:56:17.381Z,16.40
2023-03-30T17:58:45.618Z,13.82
2023-03-30T18:01:14.020Z,17.50
2023-03-30T18:03:42.571Z,18.25
2023-03-30T18:06:13.710Z,16.73
2023-03-30T18:08:42.907Z,14.45
2023-03-30T18:11:12.657Z,23.38
2023-03-30T18:13:41.153Z,22.88
2023-03-30T18:16:13.437Z,15.85
2023-03-30T18:18:41.795Z,14.80
2023-03-30T18:21:11.490Z,18.33
2023-03-30T18:23:39.703Z,15.25
2023-03-30T18:26:12.139Z,15.75
2023-03-30T18:28:43.601Z,23.50
2023-03-30T18:31:12.520Z,22.60
2023-03-30T18:33:40.893Z,18.23
2023-03-30T18:36:12.610Z,22.25
2023-03-30T18:38:41.917Z,21.35
2023-03-30T18:41:12.751Z,20.30
2023-03-30T18:43:42.470Z,21.75
2023-03-30T18:46:14.028Z,18.85
2023-03-30T18:48:42.400Z,18.77
2023-03-30T18:51:12.773Z,18.27
2023-03-30T18:53:41.223Z,21.15
2023-03-30T18:56:13.499Z,24.48
2023-03-30T18:58:43.698Z,16.92
2023-03-30T19:01:15.691Z,20.30
2023-03-30T19:03:44.671Z,19.85
2023-03-30T19:06:19.580Z,20.13
2023-03-30T19:08:47.912Z,18.25
2023-03-30T19:11:21.476Z,25.23
2023-03-30T19:13:51.405Z,14.52
2023-03-30T19:16:20.898Z,23.65
2023-03-30T19:18:50.075Z,21.60
2023-03-30T19:21:19.396Z,21.40
2023-03-30T19:23:48.097Z,19.17
2023-03-30T19:26:16.414Z,25.42
2023-03-30T19:28:44.698Z,15.63
2023-03-30T19:31:16.270Z,19.40
2023-03-30T19:33:44.630Z,14.30
2023-03-30T19:36:12.982Z,19.52
2023-03-30T19:38:44.224Z,16.52
2023-03-30T19:41:12.728Z,19.48
2023-03-30T19:43:41.010Z,15.93
2023-03-30T19:46:09.238Z,18.13
2023-03-30T19:48:38.852Z,20.88
2023-03-30T19:51:07.279Z,16.80
2023-03-30T19:53:35.672Z,20.38
2023-03-30T19:56:04.168Z,23.25
2023-03-30T19:58:32.380Z,18.73
2023-03-30T20:01:05.536Z,19.73
2023-03-30T20:03:35.094Z,22.08
2023-03-30T20:06:08.673Z,22.55
2023-03-30T20:08:37.520Z,19.77
2023-03-30T20:11:07.578Z,24.17
2023-03-30T20:13:36.022Z,21.67
2023-03-30T20:16:05.796Z,27.23
2023-03-30T20:18:35.531Z,19.98
2023-03-30T20:21:05.775Z,18.40
2023-03-30T20:23:34.229Z,23.60
2023-03-30T20:26:04.254Z,21.23
2023-03-30T20:28:32.687Z,23.67
2023-03-30T20:31:01.627Z,28.60
2023-03-30T20:33:30.775Z,22.80
2023-03-30T20:35:59.266Z,23.83
2023-03-30T20:38:28.815Z,19.27
2023-03-30T20:40:59.104Z,17.88
2023-03-30T20:43:27.792Z,23.05
2023-03-30T20:46:02.592Z,24.48
2023-03-30T20:48:33.716Z,19.80
2023-03-30T20:51:03.671Z,19.55
2023-03-30T20:53:35.677Z,24.23
2023-03-30T20:56:09.210Z,26.20
2023-03-30T20:58:38.495Z,27.15
2023-03-30T21:01:18.940Z,25.35
2023-03-30T21:03:49.880Z,27.05
2023-03-30T21:06:19.638Z,21.75
2023-03-30T21:08:49.202Z,21.42
2023-03-30T21:11:17.515Z,24.63
2023-03-30T21:13:45.909Z,24.17
2023-03-30T21:16:14.285Z,27.98
2023-03-30T21:18:42.666Z,25.05
2023-03-30T21:21:11.450Z,23.85
2023-03-30T21:23:40.238Z,32.55
2023-03-30T21:26:10.152Z,32.63
2023-03-30T21:28:39.125Z,23.30
2023-03-30T21:31:10.582Z,26.17
2023-03-30T21:33:39.633Z,28.98
2023-03-30T21:36:10.019Z,28.08
2023-03-30T21:38:39.078Z,28.13
2023-03-30T21:41:13.319Z,24.00
2023-03-30T21:43:44.365Z,29.85
2023-03-30T21:46:16.158Z,28.58
2023-03-30T21:48:46.684Z,21.38
2023-03-30T21:51:18.152Z,23.40
2023-03-30T21:53:50.614Z,27.58
2023-03-30T21:56:22.511Z,25.67
2023-03-30T21:58:51.766Z,23.83
2023-03-30T22:01:23.768Z,23.38
2023-03-30T22:03:52.500Z,26.10
2023-03-30T22:06:21.654Z,18.77
2023-03-30T22:08:50.553Z,27.67
2023-03-30T22:11:22.220Z,30.15
2023-03-30T22:13:52.032Z,25.17
2023-03-30T22:16:23.823Z,26.48
2023-03-30T22:18:53.118Z,27.70
2023-03-30T22:21:24.791Z,27.55
2023-03-30T22:23:54.583Z,28.08
2023-03-30T22:26:24.656Z,25.80
2023-03-30T22:28:52.913Z,21.00
2023-03-30T22:31:21.363Z,32.80
2023-03-30T22:33:50.150Z,36.80
2023-03-30T22:36:21.993Z,29.77
2023-03-30T22:38:52.834Z,29.35
2023-03-30T22:41:24.307Z,34.58
2023-03-30T22:43:56.233Z,34.55
2023-03-30T22:46:27.089Z,27.80
2023-03-30T22:48:56.337Z,31.77
2023-03-30T22:51:26.216Z,24.80
2023-03-30T22:53:57.690Z,35.47
2023-03-30T22:56:26.093Z,33.13
2023-03-30T22:58:56.322Z,34.80
2023-03-30T23:01:24.997Z,34.33
2023-03-30T23:03:54.426Z,36.05
2023-03-30T23:06:22.741Z,31.05
2023-03-30T23:08:52.543Z,32.33
2023-03-30T23:11:21.799Z,35.47
2023-03-30T23:13:52.139Z,32.97
2023-03-30T23:16:22.229Z,33.15
2023-03-30T23:18:51.355Z,33.72
2023-03-30T23:21:22.350Z,26.42
2023-03-30T23:23:50.770Z,25.60
2023-03-30T23:26:19.496Z,30.42
2023-03-30T23:28:47.769Z,33.42
2023-03-30T23:31:18.788Z,25.55
2023-03-30T23:33:48.589Z,32.60
2023-03-30T23:36:19.096Z,37.45
2023-03-30T23:38:48.908Z,33.28
2023-03-30T23:41:20.291Z,42.97
2023-03-30T23:43:49.409Z,32.58
2023-03-30T23:46:18.176Z,32.85
2023-03-30T23:48:47.899Z,28.33
2023-03-30T23:51:16.286Z,38.88
2023-03-30T23:53:44.597Z,29.27
2023-03-30T23:56:13.831Z,27.65
2023-03-30T23:58:42.350Z,30.60
